Time;durP1;ratioP1;P1;durP2;ratioP2;P2;SDS_P1;SDS_P2;PMS_P1;PMS_P2;Temp;Humidity;BMP_temperature;BMP_pressure;BME280_temperature;BME280_humidity;BME280_pressure;Samples;Min_cycle;Max_cycle;Signal;HPM_P1;HPM_P2
2022/11/12 00:01:27;;;;;;;25.02;19.30;;;7.70;92.10;;;;;;5042601;28;20044;-75
2022/11/12 00:03:53;;;;;;;22.83;19.13;;;7.60;92.10;;;;;;5049842;28;20040;-74
2022/11/12 00:06:18;;;;;;;25.00;20.13;;;7.60;92.10;;;;;;5032936;28;21426;-74
2022/11/12 00:08:44;;;;;;;25.33;20.60;;;7.60;92.10;;;;;;5042963;28;20029;-74
2022/11/12 00:11:09;;;;;;;24.33;19.67;;;7.60;92.00;;;;;;5045549;28;20037;-74
2022/11/12 00:13:35;;;;;;;22.98;18.23;;;7.50;91.80;;;;;;5043042;28;20025;-74
2022/11/12 00:16:01;;;;;;;20.77;17.85;;;7.40;91.70;;;;;;5052884;28;20042;-74
2022/11/12 00:18:26;;;;;;;23.50;19.25;;;7.30;91.60;;;;;;5049946;28;20114;-75
2022/11/12 00:20:52;;;;;;;23.35;19.20;;;7.30;91.70;;;;;;5028496;28;20490;-75
2022/11/12 00:23:18;;;;;;;21.55;17.83;;;7.30;91.70;;;;;;5041350;28;20032;-75
2022/11/12 00:25:43;;;;;;;22.23;19.23;;;7.30;91.60;;;;;;5047676;28;20045;-74
2022/11/12 00:28:10;;;;;;;25.13;20.05;;;7.20;91.50;;;;;;5049138;28;20025;-74
2022/11/12 00:30:39;;;;;;;25.42;19.42;;;7.10;91.50;;;;;;5029541;28;20167;-75
2022/11/12 00:33:05;;;;;;;25.50;18.58;;;7.20;91.60;;;;;;5049981;28;20170;-75
2022/11/12 00:35:32;;;;;;;25.88;19.50;;;7.20;91.60;;;;;;5048762;28;20025;-76
2022/11/12 00:37:59;;;;;;;28.33;19.98;;;7.10;91.70;;;;;;5049941;28;20420;-75
2022/11/12 00:40:25;;;;;;;28.60;19.67;;;7.20;91.90;;;;;;5042608;28;20124;-75
2022/11/12 00:42:52;;;;;;;31.13;20.35;;;7.20;92.00;;;;;;5045718;28;20052;-77
2022/11/12 00:45:20;;;;;;;26.50;19.63;;;7.30;92.00;;;;;;5032623;28;20113;-75
2022/11/12 00:47:46;;;;;;;25.33;18.30;;;7.30;92.10;;;;;;5048804;28;20029;-78
2022/11/12 00:50:12;;;;;;;28.00;20.45;;;7.30;92.20;;;;;;5049388;28;20029;-75
2022/11/12 00:52:38;;;;;;;28.55;18.77;;;7.30;92.30;;;;;;5036061;28;20041;-75
2022/11/12 00:55:03;;;;;;;25.98;19.13;;;7.40;92.40;;;;;;5046873;28;20118;-74
2022/11/12 00:57:29;;;;;;;24.55;18.48;;;7.40;92.40;;;;;;5028684;28;20052;-77
2022/11/12 00:59:55;;;;;;;24.20;17.17;;;7.40;92.40;;;;;;5066561;28;20753;-75
2022/11/12 01:02:21;;;;;;;26.13;18.38;;;7.30;92.40;;;;;;5049278;28;20051;-76
2022/11/12 01:04:47;;;;;;;25.05;18.75;;;7.30;92.40;;;;;;5047575;28;20064;-75
2022/11/12 01:07:14;;;;;;;28.17;18.70;;;7.30;92.50;;;;;;5047747;28;20381;-75
2022/11/12 01:09:40;;;;;;;25.80;19.42;;;7.30;92.50;;;;;;5048935;28;20067;-75
2022/11/12 01:12:06;;;;;;;23.33;17.13;;;7.30;92.40;;;;;;5047950;28;22288;-75
2022/11/12 01:14:32;;;;;;;26.83;18.35;;;7.20;92.40;;;;;;5051384;28;20045;-74
2022/11/12 01:16:57;;;;;;;25.20;18.33;;;7.20;92.50;;;;;;5048900;28;20506;-75
2022/11/12 01:19:23;;;;;;;25.38;18.30;;;7.20;92.50;;;;;;5049285;28;20037;-74
2022/11/12 01:21:49;;;;;;;24.92;17.92;;;7.10;92.50;;;;;;5030521;28;20182;-75
2022/11/12 01:24:14;;;;;;;25.52;18.23;;;7.10;92.50;;;;;;5030661;28;20388;-74
2022/11/12 01:26:40;;;;;;;27.73;18.80;;;7.10;92.50;;;;;;5030427;28;20112;-74
2022/11/12 01:29:06;;;;;;;22.50;17.17;;;7.10;92.50;;;;;;5047658;28;20116;-74
2022/11/12 01:31:34;;;;;;;25.70;17.92;;;7.10;92.50;;;;;;5048364;28;20046;-75
2022/11/12 01:34:06;;;;;;;28.38;18.98;;;7.10;92.50;;;;;;5037541;28;20071;-74
2022/11/12 01:36:34;;;;;;;25.05;17.83;;;7.00;92.30;;;;;;5040537;28;20098;-75
2022/11/12 01:39:00;;;;;;;25.48;18.98;;;7.00;92.30;;;;;;5048720;28;20052;-75
2022/11/12 01:41:31;;;;;;;27.38;18.25;;;6.90;92.30;;;;;;5027385;28;20033;-73
2022/11/12 01:44:14;;;;;;;22.45;17.17;;;6.90;92.30;;;;;;5041418;28;20040;-75
2022/11/12 01:47:13;;;;;;;25.70;17.45;;;6.80;92.30;;;;;;5043152;28;20025;-74
2022/11/12 01:49:48;;;;;;;24.92;17.77;;;6.80;92.40;;;;;;5047845;28;20079;-75
2022/11/12 01:52:26;;;;;;;25.83;18.17;;;6.80;92.30;;;;;;5024848;28;20045;-74
2022/11/12 01:54:54;;;;;;;21.60;16.30;;;6.80;92.30;;;;;;5044883;28;21517;-74
2022/11/12 01:57:31;;;;;;;22.48;16.25;;;6.80;92.20;;;;;;5045775;28;20025;-74
2022/11/12 02:00:00;;;;;;;23.17;17.10;;;6.70;92.20;;;;;;5047129;28;20037;-74
2022/11/12 02:02:27;;;;;;;22.77;16.48;;;6.70;92.10;;;;;;5029023;28;20037;-74
2022/11/12 02:04:54;;;;;;;25.10;16.90;;;6.60;92.10;;;;;;5037987;28;20029;-74
2022/11/12 02:07:22;;;;;;;20.40;15.38;;;6.60;92.10;;;;;;5047340;28;20413;-74
2022/11/12 02:09:48;;;;;;;23.63;16.48;;;6.60;92.10;;;;;;5046372;28;20068;-74
2022/11/12 02:13:56;;;;;;;21.60;15.13;;;6.60;92.00;;;;;;5046936;28;20068;-74
2022/11/12 02:15:00;;;;;;;21.75;16.33;;;6.50;92.00;;;;;;5051546;28;20039;-76
2022/11/12 02:17:25;;;;;;;21.80;16.27;;;6.50;92.00;;;;;;5044712;28;20025;-74
2022/11/12 02:19:51;;;;;;;23.13;16.40;;;6.40;91.90;;;;;;5036847;28;20091;-78
2022/11/12 02:22:17;;;;;;;22.95;17.17;;;6.40;92.00;;;;;;5029452;28;20047;-75
2022/11/12 02:24:43;;;;;;;23.85;17.65;;;6.40;92.00;;;;;;5046972;28;20516;-77
2022/11/12 02:27:10;;;;;;;21.55;16.17;;;6.40;92.00;;;;;;5028808;28;20037;-76
2022/11/12 02:29:45;;;;;;;23.63;16.98;;;6.30;92.00;;;;;;5041456;28;20060;-75
2022/11/12 02:32:13;;;;;;;23.05;17.52;;;6.40;92.10;;;;;;5043217;28;20875;-74
2022/11/12 02:34:39;;;;;;;23.98;17.42;;;6.40;92.10;;;;;;5047282;28;20021;-74
2022/11/12 02:37:05;;;;;;;23.50;17.23;;;6.30;92.00;;;;;;5046920;28;20033;-75
2022/11/12 02:39:31;;;;;;;21.63;15.88;;;6.20;92.10;;;;;;5046333;28;20025;-76
2022/11/12 02:41:57;;;;;;;21.80;15.43;;;6.20;92.10;;;;;;5022286;28;20033;-73
2022/11/12 02:44:23;;;;;;;23.45;16.52;;;6.20;92.10;;;;;;5046161;28;20040;-78
2022/11/12 02:46:48;;;;;;;25.77;16.73;;;6.20;92.10;;;;;;5047250;28;20125;-74
2022/11/12 02:49:14;;;;;;;23.92;16.95;;;6.20;92.10;;;;;;5045676;28;20112;-75
2022/11/12 02:51:39;;;;;;;25.75;17.38;;;6.10;92.00;;;;;;5039109;28;20103;-74
2022/11/12 02:54:05;;;;;;;22.90;16.20;;;6.20;92.10;;;;;;5027944;28;20044;-75
2022/11/12 02:56:31;;;;;;;24.02;16.90;;;6.10;92.00;;;;;;5029834;28;20528;-76
2022/11/12 02:58:56;;;;;;;23.45;15.40;;;6.10;92.00;;;;;;5028978;28;20052;-75
2022/11/12 03:01:22;;;;;;;27.30;16.50;;;6.10;91.90;;;;;;5044461;28;20029;-75
2022/11/12 03:03:48;;;;;;;28.38;17.08;;;6.10;91.90;;;;;;5046693;28;20039;-75
2022/11/12 03:06:14;;;;;;;28.60;16.85;;;6.00;91.90;;;;;;5037254;28;20420;-75
2022/11/12 03:08:39;;;;;;;26.55;16.50;;;6.10;92.00;;;;;;5042577;28;20037;-74
2022/11/12 03:11:09;;;;;;;26.65;15.32;;;6.00;91.90;;;;;;5039436;28;20044;-74
2022/11/12 03:13:35;;;;;;;25.75;15.77;;;6.00;92.00;;;;;;5046459;28;20021;-75
2022/11/12 03:16:01;;;;;;;24.95;14.85;;;6.00;92.00;;;;;;5050409;28;20048;-75
2022/11/12 03:18:27;;;;;;;25.15;15.27;;;6.00;92.00;;;;;;5046582;28;20029;-76
2022/11/12 03:20:52;;;;;;;21.65;14.35;;;6.10;92.00;;;;;;5037245;28;20133;-75
2022/11/12 03:23:18;;;;;;;23.13;14.68;;;6.00;92.00;;;;;;5024955;28;20502;-76
2022/11/12 03:25:44;;;;;;;22.60;14.82;;;6.00;92.00;;;;;;5028094;28;20033;-74
2022/11/12 03:28:12;;;;;;;21.23;13.98;;;6.10;91.90;;;;;;5025101;28;20034;-75
2022/11/12 03:30:40;;;;;;;20.85;13.82;;;6.10;91.90;;;;;;5025417;28;20025;-75
2022/11/12 03:33:07;;;;;;;20.52;13.10;;;5.90;91.70;;;;;;5020936;28;20049;-75
2022/11/12 03:35:33;;;;;;;18.90;12.88;;;5.90;91.70;;;;;;5018990;28;20041;-76
2022/11/12 03:38:00;;;;;;;18.85;13.35;;;5.90;91.80;;;;;;5030466;28;20037;-74
2022/11/12 03:40:26;;;;;;;21.38;13.52;;;5.90;91.70;;;;;;5030056;28;20135;-74
2022/11/12 03:42:52;;;;;;;22.45;14.90;;;5.90;91.40;;;;;;5035522;28;20053;-74
2022/11/12 03:45:20;;;;;;;22.50;13.35;;;5.80;91.40;;;;;;5043144;28;20050;-75
2022/11/12 03:47:51;;;;;;;20.38;13.32;;;5.80;91.40;;;;;;5030667;28;20118;-76
2022/11/12 03:50:19;;;;;;;20.40;13.68;;;5.80;91.50;;;;;;5028753;28;20120;-77
2022/11/12 03:52:56;;;;;;;19.67;13.45;;;5.70;91.40;;;;;;5026796;28;20045;-76
2022/11/12 03:55:24;;;;;;;19.67;13.05;;;5.70;91.50;;;;;;5040336;28;20040;-75
2022/11/12 03:57:51;;;;;;;20.33;13.35;;;5.70;91.60;;;;;;5036479;28;20052;-74
2022/11/12 04:00:18;;;;;;;19.92;14.27;;;5.70;91.60;;;;;;5028181;28;20045;-74
2022/11/12 04:02:44;;;;;;;19.15;13.07;;;5.70;91.60;;;;;;5029768;28;20047;-74
2022/11/12 04:10:47;;;;;;;19.33;13.40;;;5.70;91.80;;;;;;5021548;28;20060;-75
2022/11/12 04:13:27;;;;;;;17.17;13.18;;;5.80;91.80;;;;;;5040769;28;20469;-76
2022/11/12 04:21:50;;;;;;;16.63;12.80;;;5.70;91.80;;;;;;5046808;28;21747;-74
2022/11/12 04:27:00;;;;;;;17.15;13.02;;;5.70;91.80;;;;;;5044482;28;20033;-74
2022/11/12 04:32:11;;;;;;;15.68;11.93;;;5.70;91.70;;;;;;5048177;28;20172;-74
2022/11/12 04:34:36;;;;;;;17.20;12.68;;;5.60;91.70;;;;;;5047444;28;20120;-74
2022/11/12 04:37:03;;;;;;;16.77;11.55;;;5.60;91.70;;;;;;5048878;28;20135;-74
2022/11/12 04:39:29;;;;;;;16.33;12.85;;;5.70;91.70;;;;;;5049920;28;20025;-74
2022/11/12 04:47:24;;;;;;;15.70;11.38;;;5.60;91.70;;;;;;5048381;28;20114;-75
2022/11/12 04:49:49;;;;;;;15.23;11.50;;;5.60;91.70;;;;;;5040464;28;20741;-79
2022/11/12 04:52:15;;;;;;;15.80;12.05;;;5.60;91.70;;;;;;5033006;28;20104;-73
2022/11/12 04:54:40;;;;;;;16.02;11.60;;;5.50;91.60;;;;;;5039886;28;20051;-75
2022/11/12 04:57:06;;;;;;;14.55;11.02;;;5.50;91.60;;;;;;5039375;28;20045;-75
2022/11/12 04:59:32;;;;;;;15.60;11.23;;;5.50;91.60;;;;;;5045806;28;20397;-74
2022/11/12 05:01:57;;;;;;;16.30;11.60;;;5.50;91.50;;;;;;5022523;28;20045;-76
2022/11/12 05:04:26;;;;;;;14.00;10.52;;;5.40;91.50;;;;;;5032250;28;20117;-77
2022/11/12 05:06:52;;;;;;;15.32;11.10;;;5.40;91.60;;;;;;5058147;28;20028;-79
2022/11/12 05:09:24;;;;;;;14.15;10.52;;;5.40;91.50;;;;;;5039075;28;20038;-75
2022/11/12 05:11:50;;;;;;;13.23;10.40;;;5.40;91.50;;;;;;5033468;28;20124;-74
2022/11/12 05:14:17;;;;;;;14.40;11.15;;;5.40;91.60;;;;;;5033451;28;20033;-75
2022/11/12 05:16:43;;;;;;;14.23;10.13;;;5.30;91.50;;;;;;5029233;28;20037;-75
2022/11/12 05:19:08;;;;;;;14.05;10.90;;;5.40;91.40;;;;;;5029853;28;20086;-74
2022/11/12 05:24:19;;;;;;;13.83;11.07;;;5.50;91.40;;;;;;5028643;28;20044;-75
2022/11/12 05:26:44;;;;;;;14.93;10.93;;;5.50;91.40;;;;;;5034886;28;20041;-75
2022/11/12 05:29:10;;;;;;;16.73;10.57;;;5.40;91.30;;;;;;5015621;28;20433;-75
2022/11/12 05:31:35;;;;;;;16.13;10.68;;;5.40;91.30;;;;;;5027063;28;20041;-75
2022/11/12 05:34:01;;;;;;;14.90;10.88;;;5.40;91.20;;;;;;5028501;28;20045;-76
2022/11/12 05:36:27;;;;;;;15.57;11.43;;;5.40;91.30;;;;;;5027526;28;20132;-75
2022/11/12 05:38:52;;;;;;;15.32;10.93;;;5.40;91.20;;;;;;5032762;28;20493;-74
2022/11/12 05:41:18;;;;;;;13.90;10.60;;;5.30;91.10;;;;;;5033662;28;20037;-75
2022/11/12 05:43:43;;;;;;;13.18;10.55;;;5.20;91.20;;;;;;5022611;28;20443;-74
2022/11/12 05:46:09;;;;;;;14.05;10.50;;;5.30;91.30;;;;;;5020191;28;20049;-74
2022/11/12 05:48:35;;;;;;;14.43;10.98;;;5.30;91.20;;;;;;5027128;28;20036;-75
2022/11/12 05:51:01;;;;;;;17.02;13.48;;;5.20;91.10;;;;;;5036773;28;20040;-75
2022/11/12 05:53:26;;;;;;;18.75;14.10;;;5.10;91.20;;;;;;5025795;28;20028;-74
2022/11/12 05:55:52;;;;;;;27.45;17.45;;;5.20;91.20;;;;;;5022485;28;20050;-74
2022/11/12 05:58:17;;;;;;;31.80;18.52;;;5.10;91.20;;;;;;5031274;28;20022;-74
2022/11/12 06:00:43;;;;;;;29.75;18.17;;;5.10;91.30;;;;;;5035960;28;20033;-74
2022/11/12 06:03:10;;;;;;;28.45;18.45;;;5.10;91.40;;;;;;5025843;28;20037;-74
2022/11/12 06:05:36;;;;;;;28.77;16.42;;;5.10;91.40;;;;;;5027927;28;20096;-74
2022/11/12 06:08:04;;;;;;;24.60;16.48;;;5.20;91.50;;;;;;5034139;28;20116;-75
2022/11/12 06:10:31;;;;;;;23.30;14.73;;;5.20;91.50;;;;;;5029458;28;20052;-76
2022/11/12 06:12:57;;;;;;;22.73;14.88;;;5.20;91.60;;;;;;5023294;28;20547;-74
2022/11/12 06:15:26;;;;;;;23.92;15.25;;;5.20;91.70;;;;;;5029486;28;20044;-78
2022/11/12 06:17:52;;;;;;;29.13;19.13;;;5.30;91.70;;;;;;5025465;28;20064;-74
2022/11/12 06:20:18;;;;;;;32.10;22.42;;;5.30;91.70;;;;;;5036763;28;20060;-75
2022/11/12 06:22:44;;;;;;;36.60;25.50;;;5.20;91.70;;;;;;5045817;28;20036;-74
2022/11/12 06:25:10;;;;;;;30.40;21.85;;;5.20;91.70;;;;;;5026863;28;20045;-74
2022/11/12 06:27:36;;;;;;;30.50;18.02;;;5.10;91.60;;;;;;5048531;28;20029;-75
2022/11/12 06:30:02;;;;;;;22.80;16.42;;;5.20;91.70;;;;;;5066523;28;20049;-76
2022/11/12 06:32:28;;;;;;;25.60;16.95;;;5.20;91.60;;;;;;5035729;28;20041;-74
2022/11/12 06:34:53;;;;;;;23.77;15.65;;;5.10;91.60;;;;;;5030406;28;20029;-75
2022/11/12 06:37:20;;;;;;;23.58;14.32;;;5.10;91.60;;;;;;5046275;28;20071;-74
2022/11/12 06:39:46;;;;;;;20.13;14.07;;;5.10;91.60;;;;;;5037769;28;20037;-76
2022/11/12 06:42:13;;;;;;;22.27;15.05;;;5.10;91.60;;;;;;5021493;28;20369;-75
2022/11/12 06:44:38;;;;;;;18.20;13.70;;;5.10;91.60;;;;;;5047244;28;20064;-73
2022/11/12 06:47:04;;;;;;;23.98;17.42;;;5.10;91.60;;;;;;5027607;28;20025;-75
2022/11/12 06:49:30;;;;;;;25.88;17.00;;;5.10;91.60;;;;;;5041779;28;20028;-76
2022/11/12 06:51:55;;;;;;;28.23;18.02;;;5.00;91.50;;;;;;5037460;28;20393;-76
2022/11/12 06:54:21;;;;;;;23.35;17.35;;;5.00;91.60;;;;;;5034976;28;20396;-76
2022/11/12 06:56:47;;;;;;;25.45;17.55;;;5.10;91.60;;;;;;5045681;28;20171;-74
2022/11/12 06:59:12;;;;;;;21.58;15.80;;;5.10;91.50;;;;;;5028948;28;20036;-74
2022/11/12 07:01:38;;;;;;;21.42;15.05;;;5.00;91.50;;;;;;5029319;28;20123;-73
2022/11/12 07:04:04;;;;;;;21.70;15.65;;;5.00;91.50;;;;;;5047113;28;20091;-73
2022/11/12 07:06:29;;;;;;;20.77;14.18;;;5.00;91.60;;;;;;5024914;28;20460;-77
2022/11/12 07:08:55;;;;;;;20.75;14.43;;;5.10;91.60;;;;;;5040734;28;20640;-73
2022/11/12 07:11:20;;;;;;;19.80;13.70;;;5.10;91.50;;;;;;5042546;28;20083;-73
2022/11/12 07:13:47;;;;;;;17.42;13.55;;;5.10;91.50;;;;;;5047285;28;20029;-72
2022/11/12 07:16:17;;;;;;;20.02;14.45;;;5.10;91.40;;;;;;5044810;28;20052;-74
2022/11/12 07:18:45;;;;;;;19.35;13.38;;;5.20;91.40;;;;;;5045376;28;20365;-75
2022/11/12 07:21:16;;;;;;;16.40;12.50;;;5.30;91.50;;;;;;5026084;28;20485;-74
2022/11/12 07:23:42;;;;;;;16.75;12.70;;;5.30;91.50;;;;;;5035000;28;20469;-75
2022/11/12 07:26:19;;;;;;;16.30;13.18;;;5.30;91.50;;;;;;5036318;28;20094;-74
2022/11/12 07:28:45;;;;;;;20.60;13.02;;;5.30;91.40;;;;;;5026667;28;20470;-74
2022/11/12 07:31:13;;;;;;;18.30;15.65;;;5.40;91.40;;;;;;5046228;28;20377;-75
2022/11/12 07:33:39;;;;;;;18.02;14.85;;;5.40;91.40;;;;;;5045361;28;20457;-74
2022/11/12 07:36:10;;;;;;;17.23;14.30;;;5.40;91.30;;;;;;5028533;28;20041;-72
2022/11/12 07:38:39;;;;;;;17.13;13.27;;;5.50;91.40;;;;;;5027987;28;20084;-73
2022/11/12 07:41:07;;;;;;;18.88;13.95;;;5.50;91.30;;;;;;5025906;28;20123;-73
2022/11/12 07:43:34;;;;;;;18.98;14.40;;;5.50;91.30;;;;;;5020126;28;20122;-75
2022/11/12 07:46:03;;;;;;;17.20;14.35;;;5.60;91.30;;;;;;5024149;28;20037;-75
2022/11/12 07:48:29;;;;;;;18.40;15.15;;;5.60;91.30;;;;;;5034615;28;20045;-73
2022/11/12 07:51:04;;;;;;;19.45;14.77;;;5.60;91.20;;;;;;5022951;28;20032;-74
2022/11/12 07:53:31;;;;;;;20.10;15.20;;;5.70;91.20;;;;;;5022634;28;20053;-77
2022/11/12 07:55:59;;;;;;;17.38;14.43;;;5.70;91.20;;;;;;5032640;28;20188;-74
2022/11/12 07:58:26;;;;;;;21.55;17.45;;;5.70;91.20;;;;;;5017614;28;20041;-73
2022/11/12 08:00:52;;;;;;;23.80;19.30;;;5.80;91.30;;;;;;5038884;28;20039;-73
2022/11/12 08:03:18;;;;;;;23.40;19.42;;;5.90;91.30;;;;;;5028153;28;20041;-75
2022/11/12 08:05:43;;;;;;;25.13;18.40;;;5.90;91.30;;;;;;5044861;28;20029;-76
2022/11/12 08:08:10;;;;;;;22.60;18.85;;;6.00;91.30;;;;;;5024744;28;20094;-75
2022/11/12 08:10:36;;;;;;;23.38;18.90;;;6.10;91.30;;;;;;5040608;28;20033;-74
2022/11/12 08:13:01;;;;;;;29.33;22.33;;;6.10;91.20;;;;;;5041867;28;20511;-75
2022/11/12 08:15:27;;;;;;;26.45;23.05;;;6.20;91.30;;;;;;5047476;28;20033;-75
2022/11/12 08:17:53;;;;;;;25.23;22.63;;;6.20;91.40;;;;;;5026447;28;20038;-73
2022/11/12 08:20:18;;;;;;;27.90;24.92;;;6.30;91.40;;;;;;5020677;28;20150;-77
2022/11/12 08:22:44;;;;;;;24.92;21.63;;;6.40;91.30;;;;;;5037514;28;20560;-73
2022/11/12 08:25:10;;;;;;;24.02;21.40;;;6.50;91.40;;;;;;5042647;28;20515;-76
2022/11/12 08:27:35;;;;;;;23.23;19.40;;;6.70;91.50;;;;;;5045386;28;20037;-75
2022/11/12 08:30:02;;;;;;;20.70;17.27;;;6.80;91.50;;;;;;5026730;28;20033;-76
2022/11/12 08:32:27;;;;;;;30.65;26.13;;;7.00;91.60;;;;;;5028525;28;20081;-73
2022/11/12 08:34:53;;;;;;;31.75;24.38;;;7.10;91.60;;;;;;5040545;28;20122;-74
2022/11/12 08:37:18;;;;;;;25.20;20.20;;;7.30;91.60;;;;;;5028482;28;20041;-74
2022/11/12 08:39:44;;;;;;;24.13;19.75;;;7.50;91.60;;;;;;5028560;28;20120;-73
2022/11/12 08:42:10;;;;;;;25.50;19.33;;;7.70;91.50;;;;;;5046344;28;20451;-75
2022/11/12 08:44:35;;;;;;;21.85;18.55;;;7.90;91.40;;;;;;5045720;28;20047;-73
2022/11/12 08:47:01;;;;;;;24.25;19.58;;;8.10;91.30;;;;;;5047996;28;20523;-75
2022/11/12 08:49:28;;;;;;;21.50;16.70;;;8.20;91.10;;;;;;5045133;28;20036;-77
2022/11/12 08:51:54;;;;;;;22.27;17.38;;;8.40;90.90;;;;;;5041755;28;20037;-75
2022/11/12 08:54:20;;;;;;;25.52;18.70;;;8.60;90.50;;;;;;5047800;28;20492;-76
2022/11/12 08:56:45;;;;;;;22.90;19.08;;;8.60;90.10;;;;;;5029859;28;20368;-75
2022/11/12 08:59:11;;;;;;;21.75;18.42;;;8.70;89.80;;;;;;5039855;28;20124;-76
2022/11/12 09:01:37;;;;;;;25.23;19.58;;;8.80;89.90;;;;;;5043726;28;20120;-75
2022/11/12 09:04:02;;;;;;;23.90;19.08;;;8.90;89.50;;;;;;5038641;28;20385;-75
2022/11/12 09:06:28;;;;;;;22.48;19.90;;;9.00;89.10;;;;;;5040544;28;20068;-74
2022/11/12 09:08:54;;;;;;;24.05;19.10;;;9.10;89.20;;;;;;5025843;28;20373;-76
2022/11/12 09:11:19;;;;;;;24.50;20.23;;;9.10;89.00;;;;;;5029297;28;20048;-74
2022/11/12 09:13:45;;;;;;;20.17;17.00;;;9.20;88.80;;;;;;5031153;28;20448;-75
2022/11/12 09:16:10;;;;;;;22.70;17.88;;;9.30;88.90;;;;;;5040484;28;20029;-75
2022/11/12 09:18:36;;;;;;;22.95;18.48;;;9.40;88.50;;;;;;5028405;28;20420;-75
2022/11/12 09:21:06;;;;;;;21.60;18.55;;;9.50;88.60;;;;;;5023159;28;20073;-74
2022/11/12 09:23:34;;;;;;;22.33;18.98;;;9.60;88.20;;;;;;5020967;28;20041;-74
2022/11/12 09:26:00;;;;;;;20.88;18.05;;;9.70;87.90;;;;;;5042718;28;20034;-74
2022/11/12 09:28:26;;;;;;;20.52;17.95;;;9.70;87.80;;;;;;5018749;28;20044;-74
2022/11/12 09:30:53;;;;;;;24.45;18.30;;;9.90;87.70;;;;;;5026202;28;20053;-74
2022/11/12 09:33:24;;;;;;;22.45;17.33;;;9.90;87.40;;;;;;5038109;28;20473;-74
2022/11/12 09:35:51;;;;;;;21.30;16.38;;;10.00;87.50;;;;;;5038975;28;20034;-75
2022/11/12 09:38:17;;;;;;;23.35;17.52;;;10.00;87.40;;;;;;5024281;28;20033;-76
2022/11/12 09:40:52;;;;;;;20.75;17.00;;;10.10;87.20;;;;;;5043899;28;20223;-73
2022/11/12 09:43:17;;;;;;;;;;;10.20;86.70;;;;;;5028675;28;20033;-75
2022/11/12 09:45:44;;;;;;;20.85;16.90;;;10.30;86.60;;;;;;5035857;28;19916;-73
2022/11/12 09:48:14;;;;;;;20.85;16.75;;;10.50;86.70;;;;;;5029730;28;20025;-73
2022/11/12 09:50:52;;;;;;;19.75;16.80;;;10.60;86.20;;;;;;5034569;28;20053;-73
2022/11/12 09:53:25;;;;;;;25.60;19.80;;;10.80;85.80;;;;;;5030781;28;20045;-73
2022/11/12 09:55:52;;;;;;;30.27;23.00;;;10.90;84.60;;;;;;5020151;28;20032;-73
2022/11/12 09:58:18;;;;;;;27.50;21.80;;;10.90;83.90;;;;;;5026061;28;20025;-74
2022/11/12 10:01:11;;;;;;;29.17;22.33;;;10.70;82.50;;;;;;5043587;28;20040;-74
2022/11/12 10:03:52;;;;;;;31.30;22.60;;;10.50;83.00;;;;;;5038907;28;20033;-73
2022/11/12 10:06:36;;;;;;;33.58;24.33;;;10.50;83.10;;;;;;5041909;28;20029;-73
2022/11/12 10:09:08;;;;;;;31.30;23.77;;;10.40;84.20;;;;;;5024957;28;20040;-74
2022/11/12 10:14:46;;;;;;;32.55;23.90;;;10.40;83.90;;;;;;5037080;28;20500;-73
2022/11/12 10:17:47;;;;;;;32.45;24.17;;;10.20;83.80;;;;;;5039052;28;20045;-74
2022/11/12 10:20:20;;;;;;;34.13;24.42;;;10.20;84.10;;;;;;5027162;28;20049;-74
2022/11/12 10:23:21;;;;;;;35.00;24.88;;;10.20;83.90;;;;;;5032133;28;20036;-76
2022/11/12 10:25:49;;;;;;;34.75;23.83;;;10.10;84.00;;;;;;5024522;28;20033;-75
2022/11/12 10:28:47;;;;;;;34.20;24.30;;;10.10;84.50;;;;;;5033532;28;20032;-79
2022/11/12 10:31:17;;;;;;;33.22;24.70;;;10.10;84.50;;;;;;5028736;28;20485;-78
2022/11/12 10:33:43;;;;;;;35.50;26.00;;;10.00;84.90;;;;;;5010277;28;20080;-76
2022/11/12 10:36:34;;;;;;;35.50;25.92;;;10.00;85.10;;;;;;5025087;28;20029;-76
2022/11/12 10:38:59;;;;;;;36.40;25.20;;;10.10;84.90;;;;;;5035683;28;20033;-78
2022/11/12 10:41:32;;;;;;;34.92;25.88;;;10.10;85.20;;;;;;5039155;28;20112;-76
2022/11/12 10:44:02;;;;;;;35.40;25.13;;;10.10;85.10;;;;;;5014292;28;20489;-77
2022/11/12 10:46:34;;;;;;;32.38;23.80;;;10.10;85.20;;;;;;5040774;28;20056;-77
2022/11/12 10:49:01;;;;;;;35.20;25.48;;;10.10;84.80;;;;;;5042501;28;20551;-77
2022/11/12 10:51:30;;;;;;;38.65;26.60;;;10.00;85.50;;;;;;5042445;28;20033;-76
2022/11/12 10:53:56;;;;;;;37.50;27.52;;;10.10;85.90;;;;;;5041050;28;20036;-75
2022/11/12 10:56:33;;;;;;;38.65;25.80;;;10.00;85.40;;;;;;5025724;28;20033;-77
2022/11/12 10:59:19;;;;;;;40.30;27.90;;;10.00;85.60;;;;;;5025213;28;20397;-75
2022/11/12 11:01:54;;;;;;;36.90;26.10;;;10.00;85.50;;;;;;5017204;28;20045;-77
2022/11/12 11:04:32;;;;;;;39.08;28.30;;;10.10;85.60;;;;;;5034344;28;20581;-76
2022/11/12 11:07:14;;;;;;;37.78;26.92;;;10.10;85.60;;;;;;5020650;28;20041;-76
2022/11/12 11:09:58;;;;;;;38.88;26.38;;;10.10;86.20;;;;;;5041475;28;20029;-75
2022/11/12 11:12:30;;;;;;;36.58;25.55;;;10.10;85.80;;;;;;5020400;28;20056;-76
2022/11/12 11:15:14;;;;;;;37.30;25.90;;;10.20;85.90;;;;;;5035337;28;20128;-75
2022/11/12 11:17:40;;;;;;;33.87;25.63;;;10.20;85.80;;;;;;5042169;28;20044;-76
2022/11/12 11:20:52;;;;;;;36.90;25.25;;;10.20;86.10;;;;;;5024605;28;20370;-76
2022/11/12 11:23:39;;;;;;;33.08;24.05;;;10.40;85.80;;;;;;4990242;28;20025;-76
2022/11/12 11:26:45;;;;;;;33.45;23.73;;;10.50;85.40;;;;;;5039172;28;20037;-76
2022/11/12 11:29:33;;;;;;;34.67;24.63;;;10.50;85.30;;;;;;5027194;28;20033;-75
2022/11/12 11:32:15;;;;;;;35.55;24.60;;;10.40;85.30;;;;;;5022047;28;20037;-75
2022/11/12 11:34:47;;;;;;;37.25;25.80;;;10.30;85.50;;;;;;5041545;28;20499;-75
2022/11/12 11:37:28;;;;;;;34.95;23.98;;;10.30;85.90;;;;;;5021966;28;20036;-76
2022/11/12 11:40:30;;;;;;;30.73;22.20;;;10.20;86.00;;;;;;5019003;28;20072;-75
2022/11/12 11:43:40;;;;;;;36.33;24.85;;;10.20;85.80;;;;;;5037067;28;20044;-75
2022/11/12 11:46:21;;;;;;;40.72;28.40;;;10.20;86.40;;;;;;5023584;28;20072;-75
2022/11/12 11:49:35;;;;;;;37.20;25.40;;;10.10;86.30;;;;;;5035814;28;20146;-75
2022/11/12 11:52:03;;;;;;;40.38;27.90;;;10.10;86.70;;;;;;5000847;28;20046;-75
2022/11/12 11:54:50;;;;;;;35.28;25.58;;;10.10;86.90;;;;;;5018848;28;20037;-76
2022/11/12 11:57:27;;;;;;;42.20;27.55;;;10.10;87.00;;;;;;5038153;28;20090;-76
2022/11/12 11:59:52;;;;;;;41.17;27.75;;;10.20;87.00;;;;;;5039025;28;20093;-75
2022/11/12 12:02:47;;;;;;;40.72;28.63;;;10.20;87.30;;;;;;5020345;28;20041;-76
2022/11/12 12:05:42;;;;;;;45.45;30.17;;;10.30;86.60;;;;;;5037763;28;20040;-77
2022/11/12 12:08:33;;;;;;;36.25;25.15;;;10.20;87.20;;;;;;5035716;28;20086;-76
2022/11/12 12:11:24;;;;;;;35.50;25.58;;;10.40;86.90;;;;;;5030168;28;20029;-76
2022/11/12 12:14:17;;;;;;;34.13;24.13;;;10.50;87.10;;;;;;5027516;28;20378;-76
2022/11/12 12:17:23;;;;;;;34.03;24.10;;;10.50;86.70;;;;;;5045219;28;20055;-76
2022/11/12 12:20:20;;;;;;;33.30;25.17;;;10.60;87.00;;;;;;5029519;28;20037;-75
2022/11/12 12:23:18;;;;;;;30.13;23.40;;;10.60;86.80;;;;;;5017028;28;20033;-75
2022/11/12 12:25:48;;;;;;;29.38;22.85;;;10.60;87.40;;;;;;5037282;28;20550;-77
2022/11/12 12:28:14;;;;;;;29.73;22.33;;;10.70;87.20;;;;;;5018139;28;20026;-77
2022/11/12 12:30:46;;;;;;;30.02;21.65;;;10.70;87.00;;;;;;5043137;28;20037;-78
2022/11/12 12:33:47;;;;;;;27.33;20.42;;;10.80;87.20;;;;;;5024627;28;20037;-79
2022/11/12 12:36:20;;;;;;;28.80;21.88;;;10.90;87.00;;;;;;5015752;28;20029;-77
2022/11/12 12:39:16;;;;;;;28.45;22.42;;;10.90;86.60;;;;;;5045175;28;20060;-77
2022/11/12 12:41:44;;;;;;;29.88;22.98;;;11.00;86.90;;;;;;5019804;28;20026;-79
2022/11/12 12:44:10;;;;;;;31.95;24.13;;;11.00;86.80;;;;;;5025508;28;20068;-77
2022/11/12 12:46:54;;;;;;;34.00;23.25;;;11.10;86.70;;;;;;5037588;28;20458;-79
2022/11/12 12:49:29;;;;;;;35.15;24.58;;;11.10;86.40;;;;;;5039779;28;20021;-76
2022/11/12 12:51:54;;;;;;;34.60;25.33;;;11.10;86.50;;;;;;5047587;28;20065;-80
2022/11/12 12:54:39;;;;;;;33.60;23.75;;;11.10;86.40;;;;;;5033326;28;20061;-80
2022/11/12 12:57:38;;;;;;;30.90;23.95;;;11.20;86.30;;;;;;5036511;28;20029;-80
2022/11/12 13:00:37;;;;;;;33.97;23.80;;;11.10;85.90;;;;;;5049316;28;20112;-77
2022/11/12 13:03:03;;;;;;;38.42;27.02;;;11.20;85.90;;;;;;5024169;28;20087;-78
2022/11/12 13:05:34;;;;;;;34.00;24.50;;;11.30;86.10;;;;;;5049145;28;20033;-78
2022/11/12 13:08:12;;;;;;;35.33;25.00;;;11.30;86.00;;;;;;5041660;28;20029;-80
2022/11/12 13:10:40;;;;;;;32.65;24.98;;;11.40;85.90;;;;;;5040445;28;20552;-80
2022/11/12 13:13:18;;;;;;;31.80;22.88;;;11.40;85.30;;;;;;5026792;28;20053;-78
2022/11/12 13:15:44;;;;;;;33.67;25.80;;;11.30;85.30;;;;;;5049270;28;20040;-79
2022/11/12 13:18:12;;;;;;;32.72;25.27;;;11.30;85.50;;;;;;5047650;28;20041;-79
2022/11/12 13:20:40;;;;;;;34.17;25.70;;;11.20;85.60;;;;;;5049234;28;20072;-79